sensor_id;sensor_type;location;lat;lon;timestamp;pressure;altitude;pressure_sealevel;temperature;humidity
59443;BME280;45247;47.466;19.004;2023-11-21T00:00:09;99433.84;;;5.09;100.00
59443;BME280;45247;47.466;19.004;2023-11-21T00:02:41;99430.81;;;5.18;100.00
59443;BME280;45247;47.466;19.004;2023-11-21T00:05:11;99428.28;;;5.35;100.00
59443;BME280;45247;47.466;19.004;2023-11-21T00:07:41;99413.44;;;5.55;100.00
59443;BME280;45247;47.466;19.004;2023-11-21T00:10:10;99420.31;;;5.76;100.00
59443;BME280;45247;47.466;19.004;2023-11-21T00:12:42;99427.72;;;5.85;100.00
59443;BME280;45247;47.466;19.004;2023-11-21T00:15:10;99420.44;;;5.73;100.00
59443;BME280;45247;47.466;19.004;2023-11-21T00:17:43;99431.28;;;5.46;100.00
59443;BME280;45247;47.466;19.004;2023-11-21T00:20:11;99421.53;;;5.31;100.00
59443;BME280;45247;47.466;19.004;2023-11-21T00:22:40;99418.53;;;5.20;100.00
59443;BME280;45247;47.466;19.004;2023-11-21T00:25:10;99418.53;;;5.20;100.00
59443;BME280;45247;47.466;19.004;2023-11-21T00:27:38;99428.28;;;5.16;100.00
59443;BME280;45247;47.466;19.004;2023-11-21T00:30:07;99442.16;;;5.18;100.00
59443;BME280;45247;47.466;19.004;2023-11-21T00:32:35;99460.22;;;5.04;100.00
59443;BME280;45247;47.466;19.004;2023-11-21T00:35:06;99460.94;;;4.87;100.00
59443;BME280;45247;47.466;19.004;2023-11-21T00:37:34;99465.66;;;4.59;100.00
59443;BME280;45247;47.466;19.004;2023-11-21T00:40:05;99463.94;;;4.37;100.00
59443;BME280;45247;47.466;19.004;2023-11-21T00:42:34;99465.47;;;4.21;100.00
59443;BME280;45247;47.466;19.004;2023-11-21T00:45:02;99463.78;;;4.20;100.00
59443;BME280;45247;47.466;19.004;2023-11-21T00:47:31;99460.84;;;4.27;100.00
59443;BME280;45247;47.466;19.004;2023-11-21T00:50:00;99468.13;;;4.41;100.00
59443;BME280;45247;47.466;19.004;2023-11-21T00:52:29;99465.72;;;4.57;100.00
59443;BME280;45247;47.466;19.004;2023-11-21T00:54:58;99460.69;;;4.73;100.00
59443;BME280;45247;47.466;19.004;2023-11-21T00:57:27;99466.13;;;4.89;100.00
59443;BME280;45247;47.466;19.004;2023-11-21T00:59:55;99464.88;;;4.97;100.00
59443;BME280;45247;47.466;19.004;2023-11-21T01:02:23;99451.72;;;4.99;100.00
59443;BME280;45247;47.466;19.004;2023-11-21T01:04:52;99452.31;;;5.06;100.00
59443;BME280;45247;47.466;19.004;2023-11-21T01:07:20;99444.19;;;5.12;100.00
59443;BME280;45247;47.466;19.004;2023-11-21T01:09:52;99445.63;;;5.19;100.00
59443;BME280;45247;47.466;19.004;2023-11-21T01:12:20;99434.38;;;5.17;100.00
59443;BME280;45247;47.466;19.004;2023-11-21T01:14:52;99433.22;;;5.03;100.00
59443;BME280;45247;47.466;19.004;2023-11-21T01:17:20;99432.06;;;4.90;100.00
59443;BME280;45247;47.466;19.004;2023-11-21T01:19:49;99430.81;;;4.78;100.00
59443;BME280;45247;47.466;19.004;2023-11-21T01:22:17;99427.47;;;4.75;100.00
59443;BME280;45247;47.466;19.004;2023-11-21T01:24:54;99433.84;;;4.69;100.00
59443;BME280;45247;47.466;19.004;2023-11-21T01:27:22;99433.09;;;4.66;100.00
59443;BME280;45247;47.466;19.004;2023-11-21T01:29:51;99435.16;;;4.59;100.00
59443;BME280;45247;47.466;19.004;2023-11-21T01:32:20;99430.44;;;4.47;100.00
59443;BME280;45247;47.466;19.004;2023-11-21T01:34:50;99432.72;;;4.34;100.00
59443;BME280;45247;47.466;19.004;2023-11-21T01:37:18;99429.38;;;4.31;100.00
59443;BME280;45247;47.466;19.004;2023-11-21T01:39:48;99423.03;;;4.36;100.00
59443;BME280;45247;47.466;19.004;2023-11-21T01:42:18;99423.94;;;4.35;100.00
59443;BME280;45247;47.466;19.004;2023-11-21T01:44:46;99421.88;;;4.43;100.00
59443;BME280;45247;47.466;19.004;2023-11-21T01:47:16;99419.72;;;4.53;100.00
59443;BME280;45247;47.466;19.004;2023-11-21T01:49:45;99417.50;;;4.64;100.00
59443;BME280;45247;47.466;19.004;2023-11-21T01:52:14;99413.13;;;4.65;100.00
59443;BME280;45247;47.466;19.004;2023-11-21T01:54:42;99416.47;;;4.68;100.00
59443;BME280;45247;47.466;19.004;2023-11-21T01:57:11;99407.50;;;4.74;100.00
59443;BME280;45247;47.466;19.004;2023-11-21T01:59:43;99413.91;;;4.67;100.00
59443;BME280;45247;47.466;19.004;2023-11-21T02:02:12;99405.81;;;4.52;100.00
59443;BME280;45247;47.466;19.004;2023-11-21T02:04:40;99397.94;;;4.32;100.00
59443;BME280;45247;47.466;19.004;2023-11-21T02:07:08;99397.59;;;4.19;100.00
59443;BME280;45247;47.466;19.004;2023-11-21T02:09:37;99392.56;;;4.15;100.00
59443;BME280;45247;47.466;19.004;2023-11-21T02:12:09;99394.34;;;4.14;100.00
59443;BME280;45247;47.466;19.004;2023-11-21T02:14:37;99391.81;;;4.13;100.00
59443;BME280;45247;47.466;19.004;2023-11-21T02:17:07;99392.47;;;4.18;100.00
59443;BME280;45247;47.466;19.004;2023-11-21T02:19:37;99379.00;;;4.27;100.00
59443;BME280;45247;47.466;19.004;2023-11-21T02:22:06;99386.66;;;4.32;100.00
59443;BME280;45247;47.466;19.004;2023-11-21T02:24:36;99387.38;;;4.35;100.00
59443;BME280;45247;47.466;19.004;2023-11-21T02:27:05;99384.31;;;4.46;100.00
59443;BME280;45247;47.466;19.004;2023-11-21T02:29:34;99383.31;;;4.48;100.00
59443;BME280;45247;47.466;19.004;2023-11-21T02:32:02;99382.59;;;4.45;100.00
59443;BME280;45247;47.466;19.004;2023-11-21T02:34:31;99378.88;;;4.30;100.00
59443;BME280;45247;47.466;19.004;2023-11-21T02:37:00;99379.28;;;4.21;100.00
59443;BME280;45247;47.466;19.004;2023-11-21T02:39:28;99368.41;;;4.10;100.00
59443;BME280;45247;47.466;19.004;2023-11-21T02:41:58;99365.72;;;3.91;100.00
59443;BME280;45247;47.466;19.004;2023-11-21T02:44:26;99375.31;;;3.90;100.00
59443;BME280;45247;47.466;19.004;2023-11-21T02:46:54;99382.47;;;3.85;100.00
59443;BME280;45247;47.466;19.004;2023-11-21T02:49:24;99380.78;;;3.84;100.00
59443;BME280;45247;47.466;19.004;2023-11-21T02:51:55;99386.09;;;3.81;100.00
59443;BME280;45247;47.466;19.004;2023-11-21T02:54:24;99380.13;;;3.79;100.00
59443;BME280;45247;47.466;19.004;2023-11-21T02:56:54;99367.19;;;3.76;100.00
59443;BME280;45247;47.466;19.004;2023-11-21T02:59:23;99369.41;;;3.85;100.00
59443;BME280;45247;47.466;19.004;2023-11-21T03:01:52;99364.06;;;3.88;100.00
59443;BME280;45247;47.466;19.004;2023-11-21T03:04:20;99369.25;;;3.90;100.00
59443;BME280;45247;47.466;19.004;2023-11-21T03:06:49;99361.09;;;3.97;100.00
59443;BME280;45247;47.466;19.004;2023-11-21T03:09:17;99353.66;;;4.09;100.00
59443;BME280;45247;47.466;19.004;2023-11-21T03:11:46;99348.06;;;4.18;100.00
59443;BME280;45247;47.466;19.004;2023-11-21T03:14:14;99342.59;;;4.24;100.00
59443;BME280;45247;47.466;19.004;2023-11-21T03:16:44;99351.06;;;4.29;100.00
59443;BME280;45247;47.466;19.004;2023-11-21T03:19:13;99349.22;;;4.31;100.00
59443;BME280;45247;47.466;19.004;2023-11-21T03:21:41;99341.06;;;4.39;100.00
59443;BME280;45247;47.466;19.004;2023-11-21T03:24:10;99342.72;;;4.41;100.00
59443;BME280;45247;47.466;19.004;2023-11-21T03:26:38;99350.28;;;4.47;100.00
59443;BME280;45247;47.466;19.004;2023-11-21T03:29:06;99346.91;;;4.45;100.00
59443;BME280;45247;47.466;19.004;2023-11-21T03:31:34;99333.09;;;4.42;100.00
59443;BME280;45247;47.466;19.004;2023-11-21T03:34:04;99334.88;;;4.41;100.00
59443;BME280;45247;47.466;19.004;2023-11-21T03:36:33;99326.38;;;4.36;100.00
59443;BME280;45247;47.466;19.004;2023-11-21T03:39:01;99323.63;;;4.39;100.00
59443;BME280;45247;47.466;19.004;2023-11-21T03:41:29;99315.91;;;4.36;100.00
59443;BME280;45247;47.466;19.004;2023-11-21T03:43:58;99309.00;;;4.35;100.00
59443;BME280;45247;47.466;19.004;2023-11-21T03:46:26;99315.22;;;4.33;100.00
59443;BME280;45247;47.466;19.004;2023-11-21T03:48:54;99318.31;;;4.41;100.00
59443;BME280;45247;47.466;19.004;2023-11-21T03:51:24;99327.03;;;4.41;100.00
59443;BME280;45247;47.466;19.004;2023-11-21T03:53:53;99333.75;;;4.47;100.00
59443;BME280;45247;47.466;19.004;2023-11-21T03:56:21;99335.53;;;4.46;100.00
59443;BME280;45247;47.466;19.004;2023-11-21T03:58:49;99335.53;;;4.26;100.00
59443;BME280;45247;47.466;19.004;2023-11-21T04:01:21;99338.38;;;3.99;100.00
59443;BME280;45247;47.466;19.004;2023-11-21T04:03:50;99337.56;;;3.77;100.00
59443;BME280;45247;47.466;19.004;2023-11-21T04:06:18;99334.44;;;3.69;100.00
59443;BME280;45247;47.466;19.004;2023-11-21T04:08:48;99339.09;;;3.61;100.00
59443;BME280;45247;47.466;19.004;2023-11-21T04:11:16;99348.88;;;3.56;100.00
59443;BME280;45247;47.466;19.004;2023-11-21T04:13:44;99354.75;;;3.61;100.00
59443;BME280;45247;47.466;19.004;2023-11-21T04:16:13;99359.06;;;3.62;100.00
59443;BME280;45247;47.466;19.004;2023-11-21T04:18:42;99350.44;;;3.60;100.00
59443;BME280;45247;47.466;19.004;2023-11-21T04:21:10;99365.19;;;3.61;100.00
59443;BME280;45247;47.466;19.004;2023-11-21T04:23:38;99362.44;;;3.64;100.00
59443;BME280;45247;47.466;19.004;2023-11-21T04:26:08;99363.91;;;3.71;100.00
59443;BME280;45247;47.466;19.004;2023-11-21T04:28:36;99365.06;;;3.86;100.00
59443;BME280;45247;47.466;19.004;2023-11-21T04:31:04;99362.91;;;3.95;100.00
59443;BME280;45247;47.466;19.004;2023-11-21T04:33:34;99355.47;;;4.07;100.00
59443;BME280;45247;47.466;19.004;2023-11-21T04:36:02;99356.84;;;4.15;100.00
59443;BME280;45247;47.466;19.004;2023-11-21T04:38:30;99348.69;;;4.23;100.00
59443;BME280;45247;47.466;19.004;2023-11-21T04:40:59;99355.31;;;4.32;100.00
59443;BME280;45247;47.466;19.004;2023-11-21T04:43:31;99358.44;;;4.40;100.00
59443;BME280;45247;47.466;19.004;2023-11-21T04:45:59;99370.47;;;4.44;100.00
59443;BME280;45247;47.466;19.004;2023-11-21T04:48:29;99386.00;;;4.47;100.00
59443;BME280;45247;47.466;19.004;2023-11-21T04:50:57;99390.63;;;4.40;100.00
59443;BME280;45247;47.466;19.004;2023-11-21T04:53:26;99396.38;;;4.28;100.00
59443;BME280;45247;47.466;19.004;2023-11-21T04:55:54;99395.06;;;4.18;100.00
59443;BME280;45247;47.466;19.004;2023-11-21T04:58:22;99390.34;;;4.06;100.00
59443;BME280;45247;47.466;19.004;2023-11-21T05:00:52;99404.31;;;4.05;100.00
59443;BME280;45247;47.466;19.004;2023-11-21T05:03:20;99407.59;;;4.10;100.00
59443;BME280;45247;47.466;19.004;2023-11-21T05:05:51;99399.09;;;4.05;100.00
59443;BME280;45247;47.466;19.004;2023-11-21T05:08:19;99399.47;;;3.95;100.00
59443;BME280;45247;47.466;19.004;2023-11-21T05:10:49;99408.81;;;4.01;100.00
59443;BME280;45247;47.466;19.004;2023-11-21T05:13:18;99394.84;;;4.02;100.00
59443;BME280;45247;47.466;19.004;2023-11-21T05:15:47;99403.22;;;4.10;100.00
59443;BME280;45247;47.466;19.004;2023-11-21T05:18:16;99400.28;;;4.18;100.00
59443;BME280;45247;47.466;19.004;2023-11-21T05:20:45;99388.22;;;4.36;100.00
59443;BME280;45247;47.466;19.004;2023-11-21T05:23:14;99382.28;;;4.52;100.00
59443;BME280;45247;47.466;19.004;2023-11-21T05:25:42;99387.19;;;4.60;100.00
59443;BME280;45247;47.466;19.004;2023-11-21T05:28:11;99382.94;;;4.58;100.00
59443;BME280;45247;47.466;19.004;2023-11-21T05:30:43;99385.50;;;4.59;100.00
59443;BME280;45247;47.466;19.004;2023-11-21T05:33:28;99388.16;;;4.58;100.00
59443;BME280;45247;47.466;19.004;2023-11-21T05:35:59;99386.34;;;4.60;100.00
59443;BME280;45247;47.466;19.004;2023-11-21T05:38:27;99391.16;;;4.69;100.00
59443;BME280;45247;47.466;19.004;2023-11-21T05:40:56;99391.59;;;4.78;100.00
59443;BME280;45247;47.466;19.004;2023-11-21T05:43:28;99381.72;;;4.85;100.00
59443;BME280;45247;47.466;19.004;2023-11-21T05:46:00;99388.31;;;4.94;100.00
59443;BME280;45247;47.466;19.004;2023-11-21T05:48:30;99379.44;;;4.98;100.00
59443;BME280;45247;47.466;19.004;2023-11-21T05:51:02;99373.28;;;4.99;100.00
59443;BME280;45247;47.466;19.004;2023-11-21T05:53:32;99385.72;;;5.13;100.00
59443;BME280;45247;47.466;19.004;2023-11-21T05:56:00;99382.63;;;5.23;100.00
59443;BME280;45247;47.466;19.004;2023-11-21T05:58:33;99397.19;;;5.29;100.00
59443;BME280;45247;47.466;19.004;2023-11-21T06:01:05;99405.75;;;5.33;100.00
59443;BME280;45247;47.466;19.004;2023-11-21T06:03:35;99414.38;;;5.35;100.00
59443;BME280;45247;47.466;19.004;2023-11-21T06:06:05;99416.94;;;5.36;100.00
59443;BME280;45247;47.466;19.004;2023-11-21T06:08:34;99414.31;;;5.36;100.00
59443;BME280;45247;47.466;19.004;2023-11-21T06:11:02;99416.75;;;5.39;100.00
59443;BME280;45247;47.466;19.004;2023-11-21T06:13:31;99419.13;;;5.45;100.00
59443;BME280;45247;47.466;19.004;2023-11-21T06:15:59;99436.78;;;5.59;100.00
59443;BME280;45247;47.466;19.004;2023-11-21T06:18:28;99435.59;;;5.66;100.00
59443;BME280;45247;47.466;19.004;2023-11-21T06:20:57;99442.19;;;5.75;100.00
59443;BME280;45247;47.466;19.004;2023-11-21T06:23:27;99441.16;;;5.77;100.00
59443;BME280;45247;47.466;19.004;2023-11-21T06:25:55;99452.56;;;5.76;100.00
59443;BME280;45247;47.466;19.004;2023-11-21T06:28:24;99452.44;;;5.80;100.00
59443;BME280;45247;47.466;19.004;2023-11-21T06:30:52;99459.13;;;5.85;100.00
59443;BME280;45247;47.466;19.004;2023-11-21T06:33:21;99471.97;;;5.91;100.00
59443;BME280;45247;47.466;19.004;2023-11-21T06:35:50;99475.88;;;6.01;100.00
59443;BME280;45247;47.466;19.004;2023-11-21T06:38:20;99477.28;;;6.09;100.00
59443;BME280;45247;47.466;19.004;2023-11-21T06:40:48;99479.72;;;6.12;100.00
59443;BME280;45247;47.466;19.004;2023-11-21T06:43:17;99480.38;;;6.17;100.00
59443;BME280;45247;47.466;19.004;2023-11-21T06:45:45;99487.47;;;6.15;100.00
59443;BME280;45247;47.466;19.004;2023-11-21T06:48:13;99486.47;;;6.17;100.00
59443;BME280;45247;47.466;19.004;2023-11-21T06:50:42;99491.00;;;6.14;100.00
59443;BME280;45247;47.466;19.004;2023-11-21T06:53:10;99482.53;;;6.09;100.00
59443;BME280;45247;47.466;19.004;2023-11-21T06:55:39;99484.22;;;6.10;100.00
59443;BME280;45247;47.466;19.004;2023-11-21T06:58:08;99491.78;;;6.16;100.00
59443;BME280;45247;47.466;19.004;2023-11-21T07:00:36;99490.88;;;6.17;100.00
59443;BME280;45247;47.466;19.004;2023-11-21T07:03:05;99484.06;;;6.13;100.00
59443;BME280;45247;47.466;19.004;2023-11-21T07:05:33;99482.34;;;6.12;100.00
59443;BME280;45247;47.466;19.004;2023-11-21T07:08:01;99482.22;;;6.15;100.00
59443;BME280;45247;47.466;19.004;2023-11-21T07:10:31;99484.84;;;6.15;100.00
59443;BME280;45247;47.466;19.004;2023-11-21T07:13:01;99487.00;;;6.24;100.00
59443;BME280;45247;47.466;19.004;2023-11-21T07:15:29;99485.00;;;6.29;100.00
59443;BME280;45247;47.466;19.004;2023-11-21T07:17:57;99479.34;;;6.38;100.00
59443;BME280;45247;47.466;19.004;2023-11-21T07:20:25;99478.19;;;6.44;100.00
59443;BME280;45247;47.466;19.004;2023-11-21T07:22:53;99481.34;;;6.50;100.00
59443;BME280;45247;47.466;19.004;2023-11-21T07:25:23;99490.97;;;6.50;100.00
59443;BME280;45247;47.466;19.004;2023-11-21T07:27:51;99481.97;;;6.56;100.00
59443;BME280;45247;47.466;19.004;2023-11-21T07:30:21;99484.38;;;6.60;100.00
59443;BME280;45247;47.466;19.004;2023-11-21T07:32:50;99488.31;;;6.69;100.00
59443;BME280;45247;47.466;19.004;2023-11-21T07:35:18;99486.16;;;6.77;100.00
59443;BME280;45247;47.466;19.004;2023-11-21T07:37:46;99489.25;;;6.85;100.00
59443;BME280;45247;47.466;19.004;2023-11-21T07:40:16;99493.09;;;6.95;100.00
59443;BME280;45247;47.466;19.004;2023-11-21T07:42:44;99490.91;;;7.03;100.00
59443;BME280;45247;47.466;19.004;2023-11-21T07:45:13;99496.69;;;7.10;100.00
59443;BME280;45247;47.466;19.004;2023-11-21T07:47:43;99487.66;;;7.16;100.00
59443;BME280;45247;47.466;19.004;2023-11-21T07:50:11;99491.75;;;7.21;100.00
59443;BME280;45247;47.466;19.004;2023-11-21T07:52:40;99499.22;;;7.29;100.00
59443;BME280;45247;47.466;19.004;2023-11-21T07:55:08;99494.56;;;7.34;100.00
59443;BME280;45247;47.466;19.004;2023-11-21T07:57:38;99493.47;;;7.38;100.00
59443;BME280;45247;47.466;19.004;2023-11-21T08:00:07;99484.66;;;7.39;100.00
59443;BME280;45247;47.466;19.004;2023-11-21T08:02:39;99486.59;;;7.36;100.00
59443;BME280;45247;47.466;19.004;2023-11-21T08:05:11;99493.97;;;7.29;100.00
59443;BME280;45247;47.466;19.004;2023-11-21T08:07:50;99490.88;;;7.21;100.00
59443;BME280;45247;47.466;19.004;2023-11-21T08:10:19;99490.03;;;7.20;100.00
59443;BME280;45247;47.466;19.004;2023-11-21T08:12:48;99501.44;;;7.19;100.00
59443;BME280;45247;47.466;19.004;2023-11-21T08:15:18;99499.84;;;7.17;100.00
59443;BME280;45247;47.466;19.004;2023-11-21T08:17:47;99497.13;;;7.18;100.00
59443;BME280;45247;47.466;19.004;2023-11-21T08:20:17;99488.19;;;7.22;100.00
59443;BME280;45247;47.466;19.004;2023-11-21T08:22:45;99486.16;;;7.27;100.00
59443;BME280;45247;47.466;19.004;2023-11-21T08:25:15;99484.16;;;7.33;100.00
59443;BME280;45247;47.466;19.004;2023-11-21T08:27:44;99476.53;;;7.44;100.00
59443;BME280;45247;47.466;19.004;2023-11-21T08:30:12;99477.13;;;7.49;100.00
59443;BME280;45247;47.466;19.004;2023-11-21T08:32:41;99478.75;;;7.51;100.00
59443;BME280;45247;47.466;19.004;2023-11-21T08:35:10;99483.50;;;7.61;100.00
59443;BME280;45247;47.466;19.004;2023-11-21T08:37:41;99475.72;;;7.59;100.00
59443;BME280;45247;47.466;19.004;2023-11-21T08:40:11;99477.13;;;7.49;100.00
59443;BME280;45247;47.466;19.004;2023-11-21T08:42:44;99469.78;;;7.56;100.00
59443;BME280;45247;47.466;19.004;2023-11-21T08:45:13;99474.22;;;7.71;100.00
59443;BME280;45247;47.466;19.004;2023-11-21T08:47:42;99471.91;;;7.65;100.00
59443;BME280;45247;47.466;19.004;2023-11-21T08:50:11;99470.06;;;7.67;100.00
59443;BME280;45247;47.466;19.004;2023-11-21T08:52:41;99476.91;;;7.69;100.00
59443;BME280;45247;47.466;19.004;2023-11-21T08:55:10;99472.25;;;7.59;100.00
59443;BME280;45247;47.466;19.004;2023-11-21T08:57:39;99488.47;;;7.67;100.00
59443;BME280;45247;47.466;19.004;2023-11-21T09:00:09;99485.63;;;7.70;100.00
59443;BME280;45247;47.466;19.004;2023-11-21T09:02:39;99491.50;;;7.75;100.00
59443;BME280;45247;47.466;19.004;2023-11-21T09:05:09;99491.00;;;7.84;100.00
59443;BME280;45247;47.466;19.004;2023-11-21T09:07:39;99488.97;;;7.89;100.00
59443;BME280;45247;47.466;19.004;2023-11-21T09:10:10;99480.47;;;8.00;100.00
59443;BME280;45247;47.466;19.004;2023-11-21T09:12:38;99480.91;;;8.08;100.00
59443;BME280;45247;47.466;19.004;2023-11-21T09:15:08;99478.97;;;8.12;100.00
59443;BME280;45247;47.466;19.004;2023-11-21T09:17:38;99482.69;;;8.08;100.00
59443;BME280;45247;47.466;19.004;2023-11-21T09:20:07;99474.38;;;8.15;100.00
59443;BME280;45247;47.466;19.004;2023-11-21T09:22:37;99471.84;;;8.14;100.00
59443;BME280;45247;47.466;19.004;2023-11-21T09:25:06;99470.38;;;8.24;100.00
59443;BME280;45247;47.466;19.004;2023-11-21T09:27:37;99469.75;;;8.35;100.00
59443;BME280;45247;47.466;19.004;2023-11-21T09:30:06;99459.78;;;8.41;100.00
59443;BME280;45247;47.466;19.004;2023-11-21T09:32:37;99461.31;;;8.45;100.00
59443;BME280;45247;47.466;19.004;2023-11-21T09:35:08;99454.09;;;8.49;100.00
59443;BME280;45247;47.466;19.004;2023-11-21T09:37:37;99453.56;;;8.58;100.00
59443;BME280;45247;47.466;19.004;2023-11-21T09:40:10;99448.03;;;8.63;100.00
59443;BME280;45247;47.466;19.004;2023-11-21T09:42:47;99436.72;;;8.61;100.00
59443;BME280;45247;47.466;19.004;2023-11-21T09:45:23;99441.38;;;8.71;100.00
59443;BME280;45247;47.466;19.004;2023-11-21T09:47:53;99434.16;;;8.75;100.00
59443;BME280;45247;47.466;19.004;2023-11-21T09:50:23;99436.66;;;8.76;100.00
59443;BME280;45247;47.466;19.004;2023-11-21T09:53:00;99433.75;;;8.81;100.00
59443;BME280;45247;47.466;19.004;2023-11-21T09:55:34;99430.84;;;8.86;100.00
59443;BME280;45247;47.466;19.004;2023-11-21T09:58:05;99429.28;;;8.83;100.00
59443;BME280;45247;47.466;19.004;2023-11-21T10:00:35;99429.28;;;8.83;100.00
59443;BME280;45247;47.466;19.004;2023-11-21T10:03:03;99428.78;;;8.76;100.00
59443;BME280;45247;47.466;19.004;2023-11-21T10:05:31;99422.00;;;8.72;100.00
59443;BME280;45247;47.466;19.004;2023-11-21T10:08:02;99428.31;;;8.70;100.00
59443;BME280;45247;47.466;19.004;2023-11-21T10:10:33;99420.59;;;8.67;100.00
59443;BME280;45247;47.466;19.004;2023-11-21T10:13:06;99417.03;;;8.68;100.00
59443;BME280;45247;47.466;19.004;2023-11-21T10:15:34;99419.88;;;8.79;100.00
59443;BME280;45247;47.466;19.004;2023-11-21T10:18:03;99419.03;;;8.78;100.00
59443;BME280;45247;47.466;19.004;2023-11-21T10:20:33;99420.44;;;8.84;100.00
59443;BME280;45247;47.466;19.004;2023-11-21T10:23:01;99405.97;;;8.91;100.00
59443;BME280;45247;47.466;19.004;2023-11-21T10:25:30;99413.38;;;8.99;100.00
59443;BME280;45247;47.466;19.004;2023-11-21T10:28:00;99414.34;;;8.98;100.00
59443;BME280;45247;47.466;19.004;2023-11-21T10:30:36;99412.38;;;9.01;100.00
59443;BME280;45247;47.466;19.004;2023-11-21T10:33:05;99410.78;;;9.13;100.00
59443;BME280;45247;47.466;19.004;2023-11-21T10:35:45;99418.13;;;9.22;100.00
59443;BME280;45247;47.466;19.004;2023-11-21T10:38:18;99401.47;;;9.22;100.00
59443;BME280;45247;47.466;19.004;2023-11-21T10:40:50;99406.44;;;9.26;100.00
59443;BME280;45247;47.466;19.004;2023-11-21T10:43:19;99412.75;;;9.38;100.00
59443;BME280;45247;47.466;19.004;2023-11-21T10:45:48;99417.25;;;9.36;100.00
59443;BME280;45247;47.466;19.004;2023-11-21T10:48:17;99419.22;;;9.33;100.00
59443;BME280;45247;47.466;19.004;2023-11-21T10:50:46;99423.00;;;9.43;100.00
59443;BME280;45247;47.466;19.004;2023-11-21T10:53:14;99413.84;;;9.48;100.00
59443;BME280;45247;47.466;19.004;2023-11-21T10:55:42;99422.72;;;9.47;100.00
59443;BME280;45247;47.466;19.004;2023-11-21T10:58:14;99409.72;;;9.44;100.00
59443;BME280;45247;47.466;19.004;2023-11-21T11:00:43;99411.13;;;9.50;100.00
59443;BME280;45247;47.466;19.004;2023-11-21T11:03:15;99409.53;;;9.47;100.00
59443;BME280;45247;47.466;19.004;2023-11-21T11:05:44;99400.09;;;9.58;100.00
59443;BME280;45247;47.466;19.004;2023-11-21T11:08:21;99409.41;;;9.63;100.00
59443;BME280;45247;47.466;19.004;2023-11-21T11:10:55;99403.09;;;9.66;100.00
59443;BME280;45247;47.466;19.004;2023-11-21T11:13:28;99409.13;;;9.68;100.00
59443;BME280;45247;47.466;19.004;2023-11-21T11:15:58;99409.22;;;9.66;100.00
59443;BME280;45247;47.466;19.004;2023-11-21T11:18:30;99403.97;;;9.52;100.00
59443;BME280;45247;47.466;19.004;2023-11-21T11:21:06;99396.38;;;9.47;100.00
59443;BME280;45247;47.466;19.004;2023-11-21T11:23:46;99398.63;;;9.39;100.00
59443;BME280;45247;47.466;19.004;2023-11-21T11:26:26;99394.16;;;9.13;100.00
59443;BME280;45247;47.466;19.004;2023-11-21T11:29:04;99400.69;;;9.20;100.00
59443;BME280;45247;47.466;19.004;2023-11-21T11:31:40;99394.22;;;9.25;100.00
59443;BME280;45247;47.466;19.004;2023-11-21T11:34:22;99399.69;;;9.22;100.00
59443;BME280;45247;47.466;19.004;2023-11-21T11:36:57;99396.19;;;9.36;100.00
59443;BME280;45247;47.466;19.004;2023-11-21T11:39:30;99382.34;;;9.33;100.00
59443;BME280;45247;47.466;19.004;2023-11-21T11:42:02;99379.06;;;9.29;100.00
59443;BME280;45247;47.466;19.004;2023-11-21T11:44:50;99382.56;;;9.30;100.00
59443;BME280;45247;47.466;19.004;2023-11-21T11:47:25;99377.00;;;9.34;100.00
59443;BME280;45247;47.466;19.004;2023-11-21T11:49:59;99368.53;;;9.43;100.00
59443;BME280;45247;47.466;19.004;2023-11-21T11:52:39;99372.84;;;9.44;100.00
59443;BME280;45247;47.466;19.004;2023-11-21T11:55:09;99377.72;;;9.50;100.00
59443;BME280;45247;47.466;19.004;2023-11-21T11:57:38;99381.84;;;9.54;100.00
59443;BME280;45247;47.466;19.004;2023-11-21T12:00:17;99375.84;;;9.52;100.00
59443;BME280;45247;47.466;19.004;2023-11-21T12:02:48;99362.50;;;9.56;100.00
59443;BME280;45247;47.466;19.004;2023-11-21T12:05:20;99363.97;;;9.60;100.00
59443;BME280;45247;47.466;19.004;2023-11-21T12:07:50;99360.03;;;9.52;100.00
59443;BME280;45247;47.466;19.004;2023-11-21T12:10:22;99365.97;;;9.56;100.00
59443;BME280;45247;47.466;19.004;2023-11-21T12:12:53;99369.25;;;9.60;100.00
59443;BME280;45247;47.466;19.004;2023-11-21T12:15:22;99369.63;;;9.53;100.00
59443;BME280;45247;47.466;19.004;2023-11-21T12:17:50;99367.19;;;9.50;100.00
59443;BME280;45247;47.466;19.004;2023-11-21T12:20:22;99370.38;;;9.56;100.00
59443;BME280;45247;47.466;19.004;2023-11-21T12:22:51;99367.34;;;9.62;100.00
59443;BME280;45247;47.466;19.004;2023-11-21T12:25:22;99367.91;;;9.67;100.00
59443;BME280;45247;47.466;19.004;2023-11-21T12:27:51;99368.84;;;9.66;100.00
59443;BME280;45247;47.466;19.004;2023-11-21T12:30:21;99357.22;;;9.56;100.00
59443;BME280;45247;47.466;19.004;2023-11-21T12:32:50;99358.25;;;9.53;100.00
59443;BME280;45247;47.466;19.004;2023-11-21T12:35:21;99355.19;;;9.32;100.00
59443;BME280;45247;47.466;19.004;2023-11-21T12:37:51;99352.53;;;9.32;100.00
59443;BME280;45247;47.466;19.004;2023-11-21T12:40:21;99351.22;;;9.39;100.00
59443;BME280;45247;47.466;19.004;2023-11-21T12:42:52;99351.03;;;9.42;100.00
59443;BME280;45247;47.466;19.004;2023-11-21T12:45:21;99343.88;;;9.44;100.00
59443;BME280;45247;47.466;19.004;2023-11-21T12:47:55;99347.34;;;9.45;100.00
59443;BME280;45247;47.466;19.004;2023-11-21T12:50:26;99347.75;;;9.39;100.00
59443;BME280;45247;47.466;19.004;2023-11-21T12:52:59;99350.34;;;9.53;100.00
59443;BME280;45247;47.466;19.004;2023-11-21T12:55:30;99348.00;;;9.48;100.00
59443;BME280;45247;47.466;19.004;2023-11-21T12:58:01;99344.41;;;9.49;100.00
59443;BME280;45247;47.466;19.004;2023-11-21T13:00:36;99348.13;;;9.47;100.00
59443;BME280;45247;47.466;19.004;2023-11-21T13:03:08;99345.91;;;9.53;100.00